sensor_id;sensor_type;location;lat;lon;timestamp;temperature;humidity
52656;SHT85;35474;51.032;6.998;2022-10-16T00:00:40;14.30;90.13
52656;SHT85;35474;51.032;6.998;2022-10-16T00:03:08;14.43;89.96
52656;SHT85;35474;51.032;6.998;2022-10-16T00:05:40;14.33;89.82
52656;SHT85;35474;51.032;6.998;2022-10-16T00:08:09;14.40;89.50
52656;SHT85;35474;51.032;6.998;2022-10-16T00:10:37;14.40;89.40
52656;SHT85;35474;51.032;6.998;2022-10-16T00:13:04;14.48;89.10
52656;SHT85;35474;51.032;6.998;2022-10-16T00:15:41;14.52;88.79
52656;SHT85;35474;51.032;6.998;2022-10-16T00:18:10;14.59;88.42
52656;SHT85;35474;51.032;6.998;2022-10-16T00:20:36;14.57;88.18
52656;SHT85;35474;51.032;6.998;2022-10-16T00:23:03;14.62;87.98
52656;SHT85;35474;51.032;6.998;2022-10-16T00:25:31;14.64;87.84
52656;SHT85;35474;51.032;6.998;2022-10-16T00:27:59;14.70;87.34
52656;SHT85;35474;51.032;6.998;2022-10-16T00:30:26;14.73;87.19
52656;SHT85;35474;51.032;6.998;2022-10-16T00:32:53;14.66;87.35
52656;SHT85;35474;51.032;6.998;2022-10-16T00:35:20;14.69;87.28
52656;SHT85;35474;51.032;6.998;2022-10-16T00:37:46;14.67;87.31
52656;SHT85;35474;51.032;6.998;2022-10-16T00:40:13;14.57;87.33
52656;SHT85;35474;51.032;6.998;2022-10-16T00:42:40;14.42;88.11
52656;SHT85;35474;51.032;6.998;2022-10-16T00:45:09;14.32;88.55
52656;SHT85;35474;51.032;6.998;2022-10-16T00:47:37;14.28;88.72
52656;SHT85;35474;51.032;6.998;2022-10-16T00:52:33;14.28;89.00
52656;SHT85;35474;51.032;6.998;2022-10-16T00:55:00;14.18;89.21
52656;SHT85;35474;51.032;6.998;2022-10-16T00:57:29;14.14;89.23
52656;SHT85;35474;51.032;6.998;2022-10-16T00:59:56;14.15;89.33
52656;SHT85;35474;51.032;6.998;2022-10-16T01:02:23;14.12;89.42
52656;SHT85;35474;51.032;6.998;2022-10-16T01:04:50;14.12;89.40
52656;SHT85;35474;51.032;6.998;2022-10-16T01:12:47;14.16;89.13
52656;SHT85;35474;51.032;6.998;2022-10-16T01:15:30;14.09;89.14
52656;SHT85;35474;51.032;6.998;2022-10-16T01:21:18;14.05;89.25
52656;SHT85;35474;51.032;6.998;2022-10-16T01:23:27;14.05;89.12
52656;SHT85;35474;51.032;6.998;2022-10-16T01:31:20;13.95;89.45
52656;SHT85;35474;51.032;6.998;2022-10-16T01:33:52;13.95;89.48
52656;SHT85;35474;51.032;6.998;2022-10-16T01:36:28;13.91;89.70
52656;SHT85;35474;51.032;6.998;2022-10-16T01:39:02;13.90;89.81
52656;SHT85;35474;51.032;6.998;2022-10-16T01:42:03;13.91;89.91
52656;SHT85;35474;51.032;6.998;2022-10-16T01:44:31;13.95;89.79
52656;SHT85;35474;51.032;6.998;2022-10-16T01:46:59;13.94;89.75
52656;SHT85;35474;51.032;6.998;2022-10-16T01:49:27;13.93;89.58
52656;SHT85;35474;51.032;6.998;2022-10-16T01:51:58;13.95;89.72
52656;SHT85;35474;51.032;6.998;2022-10-16T01:54:28;13.91;89.83
52656;SHT85;35474;51.032;6.998;2022-10-16T01:56:57;13.90;89.88
52656;SHT85;35474;51.032;6.998;2022-10-16T01:59:25;13.90;90.06
52656;SHT85;35474;51.032;6.998;2022-10-16T02:01:57;13.93;90.07
52656;SHT85;35474;51.032;6.998;2022-10-16T02:04:34;13.94;90.04
52656;SHT85;35474;51.032;6.998;2022-10-16T02:07:08;13.94;89.97
52656;SHT85;35474;51.032;6.998;2022-10-16T02:09:35;14.00;90.03
52656;SHT85;35474;51.032;6.998;2022-10-16T02:12:14;13.90;90.07
52656;SHT85;35474;51.032;6.998;2022-10-16T02:14:45;13.91;90.20
52656;SHT85;35474;51.032;6.998;2022-10-16T02:17:15;13.93;90.36
52656;SHT85;35474;51.032;6.998;2022-10-16T02:19:43;13.93;90.62
52656;SHT85;35474;51.032;6.998;2022-10-16T02:22:16;13.87;90.54
52656;SHT85;35474;51.032;6.998;2022-10-16T02:24:51;13.91;90.48
52656;SHT85;35474;51.032;6.998;2022-10-16T02:27:32;14.00;90.39
52656;SHT85;35474;51.032;6.998;2022-10-16T02:30:05;14.00;90.36
52656;SHT85;35474;51.032;6.998;2022-10-16T02:32:36;13.90;90.47
52656;SHT85;35474;51.032;6.998;2022-10-16T02:35:06;13.90;90.44
52656;SHT85;35474;51.032;6.998;2022-10-16T02:37:33;13.91;90.50
52656;SHT85;35474;51.032;6.998;2022-10-16T02:40:01;14.00;90.43
52656;SHT85;35474;51.032;6.998;2022-10-16T02:42:35;13.88;90.58
52656;SHT85;35474;51.032;6.998;2022-10-16T02:45:04;13.84;90.65
52656;SHT85;35474;51.032;6.998;2022-10-16T02:47:32;13.83;90.67
52656;SHT85;35474;51.032;6.998;2022-10-16T02:49:58;13.81;90.74
52656;SHT85;35474;51.032;6.998;2022-10-16T02:52:25;13.84;90.79
52656;SHT85;35474;51.032;6.998;2022-10-16T02:54:52;13.81;90.83
52656;SHT85;35474;51.032;6.998;2022-10-16T02:57:19;13.91;90.96
52656;SHT85;35474;51.032;6.998;2022-10-16T02:59:45;13.78;90.99
52656;SHT85;35474;51.032;6.998;2022-10-16T03:02:13;13.78;91.07
52656;SHT85;35474;51.032;6.998;2022-10-16T03:04:40;13.81;91.16
52656;SHT85;35474;51.032;6.998;2022-10-16T03:07:07;13.78;91.25
52656;SHT85;35474;51.032;6.998;2022-10-16T03:09:33;13.73;91.40
52656;SHT85;35474;51.032;6.998;2022-10-16T03:12:00;13.71;91.43
52656;SHT85;35474;51.032;6.998;2022-10-16T03:14:26;13.67;91.61
52656;SHT85;35474;51.032;6.998;2022-10-16T03:16:58;13.65;91.65
52656;SHT85;35474;51.032;6.998;2022-10-16T03:19:24;13.63;91.79
52656;SHT85;35474;51.032;6.998;2022-10-16T03:21:51;13.61;92.03
52656;SHT85;35474;51.032;6.998;2022-10-16T03:24:17;13.58;92.02
52656;SHT85;35474;51.032;6.998;2022-10-16T03:26:44;13.53;92.09
52656;SHT85;35474;51.032;6.998;2022-10-16T03:29:10;13.51;92.18
52656;SHT85;35474;51.032;6.998;2022-10-16T03:31:36;13.53;92.19
52656;SHT85;35474;51.032;6.998;2022-10-16T03:34:03;13.46;92.14
52656;SHT85;35474;51.032;6.998;2022-10-16T03:36:29;13.48;92.12
52656;SHT85;35474;51.032;6.998;2022-10-16T03:38:56;13.50;92.20
52656;SHT85;35474;51.032;6.998;2022-10-16T03:41:22;13.51;92.17
52656;SHT85;35474;51.032;6.998;2022-10-16T03:43:48;13.51;92.12
52656;SHT85;35474;51.032;6.998;2022-10-16T03:46:15;13.56;92.10
52656;SHT85;35474;51.032;6.998;2022-10-16T03:48:41;13.61;92.04
52656;SHT85;35474;51.032;6.998;2022-10-16T03:51:08;13.58;91.96
52656;SHT85;35474;51.032;6.998;2022-10-16T03:53:34;13.53;92.01
52656;SHT85;35474;51.032;6.998;2022-10-16T03:56:01;13.63;91.79
52656;SHT85;35474;51.032;6.998;2022-10-16T03:58:27;13.74;91.68
52656;SHT85;35474;51.032;6.998;2022-10-16T04:00:53;13.63;91.90
52656;SHT85;35474;51.032;6.998;2022-10-16T04:03:20;13.67;91.82
52656;SHT85;35474;51.032;6.998;2022-10-16T04:05:47;13.67;91.83
52656;SHT85;35474;51.032;6.998;2022-10-16T04:08:13;13.74;91.68
52656;SHT85;35474;51.032;6.998;2022-10-16T04:10:42;13.77;91.56
52656;SHT85;35474;51.032;6.998;2022-10-16T04:13:09;13.73;91.68
52656;SHT85;35474;51.032;6.998;2022-10-16T04:15:36;13.78;91.48
52656;SHT85;35474;51.032;6.998;2022-10-16T04:18:02;13.75;91.56
52656;SHT85;35474;51.032;6.998;2022-10-16T04:20:29;13.80;91.26
52656;SHT85;35474;51.032;6.998;2022-10-16T04:22:56;13.81;91.14
52656;SHT85;35474;51.032;6.998;2022-10-16T04:25:22;13.78;90.98
52656;SHT85;35474;51.032;6.998;2022-10-16T04:27:49;13.81;91.06
52656;SHT85;35474;51.032;6.998;2022-10-16T04:30:15;13.77;91.04
52656;SHT85;35474;51.032;6.998;2022-10-16T04:32:42;13.75;90.88
52656;SHT85;35474;51.032;6.998;2022-10-16T04:35:08;13.78;90.65
52656;SHT85;35474;51.032;6.998;2022-10-16T04:37:37;13.71;90.57
52656;SHT85;35474;51.032;6.998;2022-10-16T04:40:03;13.70;90.72
52656;SHT85;35474;51.032;6.998;2022-10-16T04:42:30;13.74;90.70
52656;SHT85;35474;51.032;6.998;2022-10-16T04:44:57;13.70;90.69
52656;SHT85;35474;51.032;6.998;2022-10-16T04:47:23;13.68;90.88
52656;SHT85;35474;51.032;6.998;2022-10-16T04:49:50;13.64;90.93
52656;SHT85;35474;51.032;6.998;2022-10-16T04:52:17;13.53;91.15
52656;SHT85;35474;51.032;6.998;2022-10-16T04:54:45;13.50;91.51
52656;SHT85;35474;51.032;6.998;2022-10-16T04:57:11;13.56;91.56
52656;SHT85;35474;51.032;6.998;2022-10-16T04:59:37;13.57;91.62
52656;SHT85;35474;51.032;6.998;2022-10-16T05:02:04;13.60;91.48
52656;SHT85;35474;51.032;6.998;2022-10-16T05:04:30;13.60;91.56
52656;SHT85;35474;51.032;6.998;2022-10-16T05:06:57;13.56;91.66
52656;SHT85;35474;51.032;6.998;2022-10-16T05:09:23;13.48;91.63
52656;SHT85;35474;51.032;6.998;2022-10-16T05:11:50;13.42;91.97
52656;SHT85;35474;51.032;6.998;2022-10-16T05:14:16;13.37;92.08
52656;SHT85;35474;51.032;6.998;2022-10-16T05:16:43;13.39;92.21
52656;SHT85;35474;51.032;6.998;2022-10-16T05:19:09;13.36;92.37
52656;SHT85;35474;51.032;6.998;2022-10-16T05:21:53;13.42;92.39
52656;SHT85;35474;51.032;6.998;2022-10-16T05:24:20;13.40;92.23
52656;SHT85;35474;51.032;6.998;2022-10-16T05:26:46;13.42;92.21
52656;SHT85;35474;51.032;6.998;2022-10-16T05:29:13;13.42;92.19
52656;SHT85;35474;51.032;6.998;2022-10-16T05:31:39;13.48;92.28
52656;SHT85;35474;51.032;6.998;2022-10-16T05:34:06;13.48;91.93
52656;SHT85;35474;51.032;6.998;2022-10-16T05:36:32;13.47;91.97
52656;SHT85;35474;51.032;6.998;2022-10-16T05:38:58;13.51;91.71
52656;SHT85;35474;51.032;6.998;2022-10-16T05:41:27;13.54;91.75
52656;SHT85;35474;51.032;6.998;2022-10-16T05:43:54;13.60;91.48
52656;SHT85;35474;51.032;6.998;2022-10-16T05:46:20;13.64;91.37
52656;SHT85;35474;51.032;6.998;2022-10-16T05:48:47;13.61;91.28
52656;SHT85;35474;51.032;6.998;2022-10-16T05:51:14;13.67;91.34
52656;SHT85;35474;51.032;6.998;2022-10-16T05:53:41;13.58;91.33
52656;SHT85;35474;51.032;6.998;2022-10-16T05:56:09;13.58;91.39
52656;SHT85;35474;51.032;6.998;2022-10-16T05:58:38;13.50;91.47
52656;SHT85;35474;51.032;6.998;2022-10-16T06:01:10;13.50;91.56
52656;SHT85;35474;51.032;6.998;2022-10-16T06:03:39;13.43;91.64
52656;SHT85;35474;51.032;6.998;2022-10-16T06:06:19;13.43;91.70
52656;SHT85;35474;51.032;6.998;2022-10-16T06:08:47;13.43;91.68
52656;SHT85;35474;51.032;6.998;2022-10-16T06:11:16;13.40;91.78
52656;SHT85;35474;51.032;6.998;2022-10-16T06:13:44;13.34;92.05
52656;SHT85;35474;51.032;6.998;2022-10-16T06:16:12;13.25;92.34
52656;SHT85;35474;51.032;6.998;2022-10-16T06:18:39;13.32;92.66
52656;SHT85;35474;51.032;6.998;2022-10-16T06:21:09;13.43;92.35
52656;SHT85;35474;51.032;6.998;2022-10-16T06:23:38;13.44;92.21
52656;SHT85;35474;51.032;6.998;2022-10-16T06:26:12;13.44;92.02
52656;SHT85;35474;51.032;6.998;2022-10-16T06:28:40;13.46;91.96
52656;SHT85;35474;51.032;6.998;2022-10-16T06:32:33;13.46;91.85
52656;SHT85;35474;51.032;6.998;2022-10-16T06:35:00;13.48;91.77
52656;SHT85;35474;51.032;6.998;2022-10-16T06:37:26;13.50;91.78
52656;SHT85;35474;51.032;6.998;2022-10-16T06:39:53;13.58;91.64
52656;SHT85;35474;51.032;6.998;2022-10-16T06:42:20;13.60;91.28
52656;SHT85;35474;51.032;6.998;2022-10-16T06:44:46;13.61;91.56
52656;SHT85;35474;51.032;6.998;2022-10-16T06:47:13;13.70;91.31
52656;SHT85;35474;51.032;6.998;2022-10-16T06:49:39;13.85;90.87
52656;SHT85;35474;51.032;6.998;2022-10-16T06:52:05;13.91;90.17
52656;SHT85;35474;51.032;6.998;2022-10-16T06:54:32;13.91;90.47
52656;SHT85;35474;51.032;6.998;2022-10-16T06:57:07;13.81;90.43
52656;SHT85;35474;51.032;6.998;2022-10-16T06:59:34;13.91;90.35
52656;SHT85;35474;51.032;6.998;2022-10-16T07:02:00;13.95;90.18
52656;SHT85;35474;51.032;6.998;2022-10-16T07:04:26;13.95;90.14
52656;SHT85;35474;51.032;6.998;2022-10-16T07:06:53;13.98;90.22
52656;SHT85;35474;51.032;6.998;2022-10-16T07:09:19;14.05;90.02
52656;SHT85;35474;51.032;6.998;2022-10-16T07:11:46;14.21;89.87
52656;SHT85;35474;51.032;6.998;2022-10-16T07:14:14;14.12;89.88
52656;SHT85;35474;51.032;6.998;2022-10-16T07:16:42;14.23;89.89
52656;SHT85;35474;51.032;6.998;2022-10-16T07:19:09;14.29;89.82
52656;SHT85;35474;51.032;6.998;2022-10-16T07:21:38;14.36;89.62
52656;SHT85;35474;51.032;6.998;2022-10-16T07:24:05;14.56;89.34
52656;SHT85;35474;51.032;6.998;2022-10-16T07:26:34;14.73;88.67
52656;SHT85;35474;51.032;6.998;2022-10-16T07:29:02;14.59;88.63
52656;SHT85;35474;51.032;6.998;2022-10-16T07:31:30;14.67;88.56
52656;SHT85;35474;51.032;6.998;2022-10-16T07:33:57;14.67;88.42
52656;SHT85;35474;51.032;6.998;2022-10-16T07:36:25;14.72;88.47
52656;SHT85;35474;51.032;6.998;2022-10-16T07:38:52;14.77;88.39
52656;SHT85;35474;51.032;6.998;2022-10-16T07:41:23;14.76;88.34
52656;SHT85;35474;51.032;6.998;2022-10-16T07:43:51;15.00;87.97
52656;SHT85;35474;51.032;6.998;2022-10-16T07:46:20;15.31;86.92
52656;SHT85;35474;51.032;6.998;2022-10-16T07:48:48;15.12;86.85
52656;SHT85;35474;51.032;6.998;2022-10-16T07:51:15;15.31;86.79
52656;SHT85;35474;51.032;6.998;2022-10-16T07:53:46;15.32;86.15
52656;SHT85;35474;51.032;6.998;2022-10-16T07:56:13;15.85;85.17
52656;SHT85;35474;51.032;6.998;2022-10-16T07:58:41;15.74;84.62
52656;SHT85;35474;51.032;6.998;2022-10-16T08:01:09;15.83;85.06
52656;SHT85;35474;51.032;6.998;2022-10-16T08:03:37;16.57;83.39
52656;SHT85;35474;51.032;6.998;2022-10-16T08:06:08;17.75;79.40
52656;SHT85;35474;51.032;6.998;2022-10-16T08:08:34;18.47;74.61
52656;SHT85;35474;51.032;6.998;2022-10-16T08:11:01;18.83;74.80
52656;SHT85;35474;51.032;6.998;2022-10-16T08:13:30;19.69;71.99
52656;SHT85;35474;51.032;6.998;2022-10-16T08:15:57;19.25;70.92
52656;SHT85;35474;51.032;6.998;2022-10-16T08:18:23;18.92;71.91
52656;SHT85;35474;51.032;6.998;2022-10-16T08:20:57;19.08;72.55
52656;SHT85;35474;51.032;6.998;2022-10-16T08:23:25;19.06;71.82
52656;SHT85;35474;51.032;6.998;2022-10-16T08:25:56;19.04;70.76
52656;SHT85;35474;51.032;6.998;2022-10-16T08:28:27;18.46;72.84
52656;SHT85;35474;51.032;6.998;2022-10-16T08:30:54;18.87;71.70
52656;SHT85;35474;51.032;6.998;2022-10-16T08:33:22;18.04;74.15
52656;SHT85;35474;51.032;6.998;2022-10-16T08:35:52;18.54;73.15
52656;SHT85;35474;51.032;6.998;2022-10-16T08:38:19;18.51;70.84
52656;SHT85;35474;51.032;6.998;2022-10-16T08:40:46;18.17;72.31
52656;SHT85;35474;51.032;6.998;2022-10-16T08:43:31;18.39;71.25
52656;SHT85;35474;51.032;6.998;2022-10-16T08:49:00;18.40;70.85
52656;SHT85;35474;51.032;6.998;2022-10-16T08:51:31;18.57;70.03
52656;SHT85;35474;51.032;6.998;2022-10-16T08:54:05;18.94;69.82
52656;SHT85;35474;51.032;6.998;2022-10-16T08:56:41;19.49;68.44
52656;SHT85;35474;51.032;6.998;2022-10-16T08:59:09;20.32;65.50
52656;SHT85;35474;51.032;6.998;2022-10-16T09:01:39;19.85;66.37
52656;SHT85;35474;51.032;6.998;2022-10-16T09:04:14;19.22;66.39
52656;SHT85;35474;51.032;6.998;2022-10-16T09:10:11;19.42;66.33
52656;SHT85;35474;51.032;6.998;2022-10-16T09:12:40;19.93;64.87
52656;SHT85;35474;51.032;6.998;2022-10-16T09:15:29;20.69;61.54
52656;SHT85;35474;51.032;6.998;2022-10-16T09:23:14;21.11;59.48
52656;SHT85;35474;51.032;6.998;2022-10-16T09:25:43;20.93;61.81
52656;SHT85;35474;51.032;6.998;2022-10-16T09:28:11;22.60;56.60
52656;SHT85;35474;51.032;6.998;2022-10-16T09:30:38;20.68;58.97
52656;SHT85;35474;51.032;6.998;2022-10-16T09:33:06;20.89;59.89
52656;SHT85;35474;51.032;6.998;2022-10-16T09:35:45;20.45;60.71
52656;SHT85;35474;51.032;6.998;2022-10-16T09:41:17;21.19;58.10
52656;SHT85;35474;51.032;6.998;2022-10-16T09:43:49;21.82;57.10
52656;SHT85;35474;51.032;6.998;2022-10-16T09:49:04;21.44;56.29
52656;SHT85;35474;51.032;6.998;2022-10-16T09:51:45;21.41;56.51
52656;SHT85;35474;51.032;6.998;2022-10-16T09:54:13;22.36;56.78
52656;SHT85;35474;51.032;6.998;2022-10-16T09:56:41;22.53;52.69
52656;SHT85;35474;51.032;6.998;2022-10-16T09:59:10;22.47;54.60
52656;SHT85;35474;51.032;6.998;2022-10-16T10:01:40;22.84;53.68
52656;SHT85;35474;51.032;6.998;2022-10-16T10:04:10;21.77;55.33
52656;SHT85;35474;51.032;6.998;2022-10-16T10:11:48;20.55;58.42
52656;SHT85;35474;51.032;6.998;2022-10-16T10:14:18;22.16;54.64
52656;SHT85;35474;51.032;6.998;2022-10-16T10:16:47;21.31;55.41
52656;SHT85;35474;51.032;6.998;2022-10-16T10:19:19;21.77;54.66
52656;SHT85;35474;51.032;6.998;2022-10-16T10:21:58;23.39;50.49
52656;SHT85;35474;51.032;6.998;2022-10-16T10:24:24;22.83;52.49
52656;SHT85;35474;51.032;6.998;2022-10-16T10:26:54;21.88;54.36
52656;SHT85;35474;51.032;6.998;2022-10-16T10:32:28;20.24;58.29
52656;SHT85;35474;51.032;6.998;2022-10-16T10:46:04;19.78;60.63
52656;SHT85;35474;51.032;6.998;2022-10-16T10:48:50;20.39;58.86
52656;SHT85;35474;51.032;6.998;2022-10-16T10:56:51;21.16;57.11
52656;SHT85;35474;51.032;6.998;2022-10-16T10:59:34;21.77;55.57
52656;SHT85;35474;51.032;6.998;2022-10-16T11:03:06;23.15;52.55
52656;SHT85;35474;51.032;6.998;2022-10-16T11:05:38;24.32;49.43
52656;SHT85;35474;51.032;6.998;2022-10-16T11:10:58;25.00;47.93
52656;SHT85;35474;51.032;6.998;2022-10-16T11:22:06;21.47;56.02
52656;SHT85;35474;51.032;6.998;2022-10-16T11:24:44;21.85;54.33
52656;SHT85;35474;51.032;6.998;2022-10-16T11:27:17;22.84;52.75
52656;SHT85;35474;51.032;6.998;2022-10-16T11:29:58;21.07;56.42
52656;SHT85;35474;51.032;6.998;2022-10-16T11:32:30;22.19;54.86
52656;SHT85;35474;51.032;6.998;2022-10-16T11:35:06;22.76;53.82
52656;SHT85;35474;51.032;6.998;2022-10-16T11:37:42;22.15;54.98
52656;SHT85;35474;51.032;6.998;2022-10-16T11:40:32;22.68;52.75
52656;SHT85;35474;51.032;6.998;2022-10-16T11:45:54;24.68;48.03
52656;SHT85;35474;51.032;6.998;2022-10-16T11:48:31;25.27;46.84
52656;SHT85;35474;51.032;6.998;2022-10-16T11:51:11;24.41;48.47
52656;SHT85;35474;51.032;6.998;2022-10-16T11:53:46;25.88;46.26
52656;SHT85;35474;51.032;6.998;2022-10-16T11:56:20;25.87;44.98
52656;SHT85;35474;51.032;6.998;2022-10-16T12:01:28;24.11;47.39
52656;SHT85;35474;51.032;6.998;2022-10-16T12:09:31;22.63;49.72
52656;SHT85;35474;51.032;6.998;2022-10-16T12:12:00;23.16;48.99
52656;SHT85;35474;51.032;6.998;2022-10-16T12:16:54;21.75;52.57
52656;SHT85;35474;51.032;6.998;2022-10-16T12:19:26;21.93;52.11
52656;SHT85;35474;51.032;6.998;2022-10-16T12:21:56;22.23;51.44
52656;SHT85;35474;51.032;6.998;2022-10-16T12:26:56;21.03;55.27
52656;SHT85;35474;51.032;6.998;2022-10-16T12:29:33;21.31;55.40
52656;SHT85;35474;51.032;6.998;2022-10-16T12:35:27;21.44;55.34
52656;SHT85;35474;51.032;6.998;2022-10-16T12:38:16;21.60;54.50
52656;SHT85;35474;51.032;6.998;2022-10-16T12:40:55;22.18;52.95
52656;SHT85;35474;51.032;6.998;2022-10-16T12:43:25;22.03;53.15
52656;SHT85;35474;51.032;6.998;2022-10-16T12:46:22;21.79;52.97
52656;SHT85;35474;51.032;6.998;2022-10-16T12:51:38;25.10;46.30
52656;SHT85;35474;51.032;6.998;2022-10-16T12:54:17;25.46;45.06
52656;SHT85;35474;51.032;6.998;2022-10-16T13:08:02;26.37;41.95
52656;SHT85;35474;51.032;6.998;2022-10-16T13:15:55;24.61;44.01
52656;SHT85;35474;51.032;6.998;2022-10-16T13:18:44;25.26;43.86
52656;SHT85;35474;51.032;6.998;2022-10-16T13:26:58;24.18;45.57
52656;SHT85;35474;51.032;6.998;2022-10-16T13:29:33;22.78;47.76
52656;SHT85;35474;51.032;6.998;2022-10-16T13:32:00;23.01;48.24
52656;SHT85;35474;51.032;6.998;2022-10-16T13:34:32;23.50;47.77
52656;SHT85;35474;51.032;6.998;2022-10-16T13:36:59;24.45;46.22
52656;SHT85;35474;51.032;6.998;2022-10-16T13:39:27;25.51;43.82
52656;SHT85;35474;51.032;6.998;2022-10-16T13:44:44;26.67;41.18
52656;SHT85;35474;51.032;6.998;2022-10-16T13:47:18;27.18;40.60
52656;SHT85;35474;51.032;6.998;2022-10-16T13:49:46;26.98;40.73
52656;SHT85;35474;51.032;6.998;2022-10-16T13:52:24;24.45;44.62
52656;SHT85;35474;51.032;6.998;2022-10-16T13:54:51;24.58;45.96
52656;SHT85;35474;51.032;6.998;2022-10-16T13:57:17;24.82;45.19
52656;SHT85;35474;51.032;6.998;2022-10-16T13:59:53;24.44;45.81
52656;SHT85;35474;51.032;6.998;2022-10-16T14:02:37;23.70;47.18
52656;SHT85;35474;51.032;6.998;2022-10-16T14:05:08;23.87;46.80
52656;SHT85;35474;51.032;6.998;2022-10-16T14:07:36;24.85;45.89
52656;SHT85;35474;51.032;6.998;2022-10-16T14:10:05;25.34;44.03
52656;SHT85;35474;51.032;6.998;2022-10-16T14:12:44;25.39;44.22
52656;SHT85;35474;51.032;6.998;2022-10-16T14:15:18;24.95;45.22
52656;SHT85;35474;51.032;6.998;2022-10-16T14:17:45;24.00;47.31
52656;SHT85;35474;51.032;6.998;2022-10-16T14:20:16;22.47;51.44
52656;SHT85;35474;51.032;6.998;2022-10-16T14:22:44;22.44;51.50
52656;SHT85;35474;51.032;6.998;2022-10-16T14:27:45;21.65;54.63
52656;SHT85;35474;51.032;6.998;2022-10-16T14:30:24;21.47;55.61
52656;SHT85;35474;51.032;6.998;2022-10-16T14:33:01;21.51;55.44
52656;SHT85;35474;51.032;6.998;2022-10-16T14:35:31;21.50;55.59
52656;SHT85;35474;51.032;6.998;2022-10-16T14:38:05;21.34;56.44
52656;SHT85;35474;51.032;6.998;2022-10-16T14:40:45;21.48;56.21
52656;SHT85;35474;51.032;6.998;2022-10-16T14:43:14;21.51;56.52
52656;SHT85;35474;51.032;6.998;2022-10-16T14:45:51;21.57;56.71
52656;SHT85;35474;51.032;6.998;2022-10-16T14:48:20;21.48;56.66
52656;SHT85;35474;51.032;6.998;2022-10-16T14:50:47;21.52;56.99
52656;SHT85;35474;51.032;6.998;2022-10-16T14:53:14;21.48;57.34
52656;SHT85;35474;51.032;6.998;2022-10-16T14:55:41;21.61;57.15
52656;SHT85;35474;51.032;6.998;2022-10-16T14:58:18;21.26;57.88
52656;SHT85;35474;51.032;6.998;2022-10-16T15:00:53;21.50;57.57
52656;SHT85;35474;51.032;6.998;2022-10-16T15:03:37;21.16;58.83
52656;SHT85;35474;51.032;6.998;2022-10-16T15:06:25;21.44;58.50
52656;SHT85;35474;51.032;6.998;2022-10-16T15:08:51;20.76;60.27
52656;SHT85;35474;51.032;6.998;2022-10-16T15:11:18;20.36;61.63
52656;SHT85;35474;51.032;6.998;2022-10-16T15:13:45;20.39;61.94
52656;SHT85;35474;51.032;6.998;2022-10-16T15:16:28;20.44;62.04
52656;SHT85;35474;51.032;6.998;2022-10-16T15:18:55;20.65;61.84
52656;SHT85;35474;51.032;6.998;2022-10-16T15:21:26;20.86;61.36
52656;SHT85;35474;51.032;6.998;2022-10-16T15:23:54;20.53;62.15
52656;SHT85;35474;51.032;6.998;2022-10-16T15:26:23;20.53;62.58
52656;SHT85;35474;51.032;6.998;2022-10-16T15:28:51;20.51;62.65
52656;SHT85;35474;51.032;6.998;2022-10-16T15:31:18;20.55;62.89
52656;SHT85;35474;51.032;6.998;2022-10-16T15:33:45;20.53;63.01
52656;SHT85;35474;51.032;6.998;2022-10-16T15:36:17;20.42;63.33
52656;SHT85;35474;51.032;6.998;2022-10-16T15:38:43;20.41;63.64
52656;SHT85;35474;51.032;6.998;2022-10-16T15:41:11;20.35;63.92
52656;SHT85;35474;51.032;6.998;2022-10-16T15:43:37;20.39;63.92
52656;SHT85;35474;51.032;6.998;2022-10-16T15:46:05;20.28;64.08
52656;SHT85;35474;51.032;6.998;2022-10-16T15:48:34;20.21;64.51
52656;SHT85;35474;51.032;6.998;2022-10-16T15:51:02;20.05;65.42
52656;SHT85;35474;51.032;6.998;2022-10-16T15:53:31;19.94;65.85
52656;SHT85;35474;51.032;6.998;2022-10-16T15:56:00;19.93;66.01
52656;SHT85;35474;51.032;6.998;2022-10-16T15:58:28;19.85;66.31
52656;SHT85;35474;51.032;6.998;2022-10-16T16:00:57;19.76;66.64
52656;SHT85;35474;51.032;6.998;2022-10-16T16:03:27;19.71;67.17
52656;SHT85;35474;51.032;6.998;2022-10-16T16:05:55;19.69;67.40
52656;SHT85;35474;51.032;6.998;2022-10-16T16:08:22;19.62;67.68
52656;SHT85;35474;51.032;6.998;2022-10-16T16:10:59;19.53;68.12
52656;SHT85;35474;51.032;6.998;2022-10-16T16:13:27;19.47;68.49
52656;SHT85;35474;51.032;6.998;2022-10-16T16:15:53;19.39;69.04
52656;SHT85;35474;51.032;6.998;2022-10-16T16:18:20;19.32;69.53
52656;SHT85;35474;51.032;6.998;2022-10-16T16:20:47;19.34;69.81
52656;SHT85;35474;51.032;6.998;2022-10-16T16:23:14;19.20;70.45
52656;SHT85;35474;51.032;6.998;2022-10-16T16:25:41;19.19;70.73
52656;SHT85;35474;51.032;6.998;2022-10-16T16:28:08;19.12;71.43
52656;SHT85;35474;51.032;6.998;2022-10-16T16:30:36;19.01;71.90
52656;SHT85;35474;51.032;6.998;2022-10-16T16:33:03;18.94;72.55
52656;SHT85;35474;51.032;6.998;2022-10-16T16:35:29;18.88;72.77
52656;SHT85;35474;51.032;6.998;2022-10-16T16:37:56;18.87;73.03
52656;SHT85;35474;51.032;6.998;2022-10-16T16:40:22;18.75;73.65
52656;SHT85;35474;51.032;6.998;2022-10-16T16:42:49;18.68;74.10
52656;SHT85;35474;51.032;6.998;2022-10-16T16:45:15;18.60;74.39
52656;SHT85;35474;51.032;6.998;2022-10-16T16:47:42;18.61;74.63
52656;SHT85;35474;51.032;6.998;2022-10-16T16:50:08;18.53;74.90
52656;SHT85;35474;51.032;6.998;2022-10-16T16:52:35;18.56;75.06
52656;SHT85;35474;51.032;6.998;2022-10-16T16:55:01;18.51;75.20
52656;SHT85;35474;51.032;6.998;2022-10-16T16:57:28;18.48;75.43
52656;SHT85;35474;51.032;6.998;2022-10-16T16:59:57;18.44;75.67
52656;SHT85;35474;51.032;6.998;2022-10-16T17:02:23;18.44;75.84
52656;SHT85;35474;51.032;6.998;2022-10-16T17:04:50;18.37;76.20
52656;SHT85;35474;51.032;6.998;2022-10-16T17:07:16;18.37;76.24
52656;SHT85;35474;51.032;6.998;2022-10-16T17:09:49;18.34;76.30
52656;SHT85;35474;51.032;6.998;2022-10-16T17:12:16;18.36;76.41
52656;SHT85;35474;51.032;6.998;2022-10-16T17:14:42;18.34;76.57
52656;SHT85;35474;51.032;6.998;2022-10-16T17:17:09;18.32;76.86
52656;SHT85;35474;51.032;6.998;2022-10-16T17:19:35;18.30;77.02
52656;SHT85;35474;51.032;6.998;2022-10-16T17:22:02;18.23;77.35
52656;SHT85;35474;51.032;6.998;2022-10-16T17:24:33;18.27;77.41
52656;SHT85;35474;51.032;6.998;2022-10-16T17:26:59;18.29;77.44
52656;SHT85;35474;51.032;6.998;2022-10-16T17:29:26;18.25;77.66
52656;SHT85;35474;51.032;6.998;2022-10-16T17:31:52;18.26;77.73
52656;SHT85;35474;51.032;6.998;2022-10-16T17:34:21;18.27;77.78
52656;SHT85;35474;51.032;6.998;2022-10-16T17:36:47;18.30;77.86
52656;SHT85;35474;51.032;6.998;2022-10-16T17:39:14;18.29;77.94
52656;SHT85;35474;51.032;6.998;2022-10-16T17:41:43;18.23;78.11
52656;SHT85;35474;51.032;6.998;2022-10-16T17:44:10;18.25;78.17
52656;SHT85;35474;51.032;6.998;2022-10-16T17:46:45;18.27;78.16